• Join FlightAware (Why Join?)
  • Login
  • US Flag 
06:06AM EDT


 

Airport Tracker/Info


-or-


 

Live Flight TrackerFlight Track Log ✈ TAM3841 ✈ 12-Sep-2013 ✈ SBFZ / FOR - SBTE / THE

Flight Track Log - Related Links

Times and Time Zones

All times are in EDT time to prevent confusion due to time zone crossing. See the TAM3841 flight status page for this flight to view local times or setup timezone preferences in your user account.

Time Position Orientation Groundspeed Altitude Reporting Facility
EDT Latitude Longitude Course Direction KTS MPH feet Rate Location/Type
03:34PM -4.6437 -41.4213 253° West  Level Estimated
03:35PM -4.6698 -41.5089 253° West  Level Estimated
03:36PM -4.6959 -41.5966 253° West  Level Estimated
03:37PM -4.7220 -41.6842 253° West  Level Estimated
03:38PM -4.7481 -41.7719 253° West  Level Estimated
03:39PM -4.7742 -41.8596 253° West  Level Estimated
03:40PM -4.8002 -41.9472 253° West  Level Estimated
03:41PM -4.8263 -42.0349 253° West  Level Estimated
03:42PM -4.8523 -42.1226 253° West  Level Estimated
03:43PM -4.8783 -42.2103 253° West  Level Estimated
03:44PM -4.9044 -42.2980 253° West  Level Estimated
03:45PM -4.9304 -42.3857 253° West  Level Estimated
03:46PM -4.9563 -42.4734 253° West  Level Estimated
03:47PM -4.9823 -42.5611 253° West  Level Estimated
03:48PM -5.0083 -42.6489 253° West  Level Estimated
03:49PM -5.0342 -42.7366 253° West  Level Estimated
03:50PM -5.0599 -42.8235 253° West  Level Estimated
03:51PM -5.0599 -42.8235 135° Southeast  Level Estimated
03:52PM -5.0599 -42.8235 135° Southeast  Level Estimated
03:53PM -5.0599 -42.8235 135° Southeast  Level Estimated
03:54PM -5.0599 -42.8235 135° Southeast  Level Estimated
03:55PM -5.0599 -42.8235 135° Southeast  Level Estimated
03:56PM -5.0599 -42.8235 135° Southeast  Level Estimated
03:57PM -5.0599 -42.8235 135° Southeast  Level Estimated
03:58PM -5.0599 -42.8235 135° Southeast  Level Estimated
03:59PM -5.0599 -42.8235 135° Southeast  Level Estimated
04:00PM -5.0599 -42.8235 135° Southeast  Level Estimated
04:01PM -5.0599 -42.8235 135° Southeast  Level Estimated
04:02PM -5.0599 -42.8235 135° Southeast  Level Estimated
04:03PM -5.0599 -42.8235 135° Southeast  Level Estimated
04:04PM -5.0599 -42.8235 135° Southeast  Level Estimated
04:05PM -5.0599 -42.8235 135° Southeast  Level Estimated
04:06PM -5.0599 -42.8235 135° Southeast  Level Estimated